createdAt,value
2023-03-12T00:01:25.400Z,4.30
2023-03-12T00:02:57.644Z,3.90
2023-03-12T00:04:29.961Z,4.30
2023-03-12T00:06:10.630Z,4.20
2023-03-12T00:07:42.979Z,4.00
2023-03-12T00:09:14.818Z,4.30
2023-03-12T00:10:46.633Z,4.20
2023-03-12T00:12:18.446Z,4.00
2023-03-12T00:13:53.147Z,4.90
2023-03-12T00:15:25.368Z,4.10
2023-03-12T00:16:57.166Z,4.50
2023-03-12T00:18:29.639Z,4.50
2023-03-12T00:20:02.335Z,5.40
2023-03-12T00:21:34.272Z,6.10
2023-03-12T00:23:06.136Z,6.00
2023-03-12T00:24:37.923Z,6.90
2023-03-12T00:26:14.827Z,6.80
2023-03-12T00:27:47.112Z,7.10
2023-03-12T00:29:18.937Z,6.70
2023-03-12T00:30:52.174Z,5.50
2023-03-12T00:32:24.866Z,5.80
2023-03-12T00:33:57.403Z,5.50
2023-03-12T00:35:29.354Z,5.10
2023-03-12T00:37:01.339Z,4.90
2023-03-12T00:38:33.122Z,4.80
2023-03-12T00:40:08.475Z,4.70
2023-03-12T00:41:40.293Z,4.60
2023-03-12T00:43:12.217Z,4.30
2023-03-12T00:44:44.434Z,4.50
2023-03-12T00:46:18.536Z,3.90
2023-03-12T00:47:50.353Z,4.10
2023-03-12T00:49:22.178Z,3.90
2023-03-12T00:50:54.006Z,3.70
2023-03-12T00:52:25.903Z,3.60
2023-03-12T00:53:58.087Z,3.70
2023-03-12T00:55:29.949Z,3.70
2023-03-12T00:57:02.237Z,3.70
2023-03-12T00:58:34.115Z,3.80
2023-03-12T01:00:10.773Z,3.50
2023-03-12T01:01:43.423Z,3.60
2023-03-12T01:03:16.785Z,3.80
2023-03-12T01:04:48.695Z,3.50
2023-03-12T01:06:21.601Z,3.50
2023-03-12T01:07:55.005Z,3.40
2023-03-12T01:09:26.908Z,3.30
2023-03-12T01:10:58.743Z,3.30
2023-03-12T01:12:30.548Z,2.80
2023-03-12T01:14:05.850Z,2.70
2023-03-12T01:15:38.073Z,3.50
2023-03-12T01:17:11.021Z,3.20
2023-03-12T01:18:43.624Z,3.00
2023-03-12T01:20:16.232Z,3.10
2023-03-12T01:21:48.145Z,3.30
2023-03-12T01:23:19.975Z,3.00
2023-03-12T01:24:51.844Z,3.00
2023-03-12T01:26:24.000Z,2.10
2023-03-12T01:27:55.988Z,2.60
2023-03-12T01:29:28.066Z,2.40
2023-03-12T01:31:08.422Z,2.60
2023-03-12T01:32:40.521Z,2.20
2023-03-12T01:34:12.702Z,2.20
2023-03-12T01:35:45.433Z,1.80
2023-03-12T01:37:17.270Z,1.80
2023-03-12T01:38:52.785Z,2.00
2023-03-12T01:40:26.243Z,2.30
2023-03-12T01:41:58.080Z,1.80
2023-03-12T01:43:37.353Z,2.00
2023-03-12T01:45:59.094Z,1.40
2023-03-12T01:47:34.375Z,1.70
2023-03-12T01:49:17.732Z,1.70
2023-03-12T01:50:50.284Z,1.40
2023-03-12T01:52:26.555Z,1.30
2023-03-12T01:54:05.424Z,1.70
2023-03-12T01:55:38.343Z,1.90
2023-03-12T01:57:22.306Z,1.90
2023-03-12T01:59:00.167Z,1.80
2023-03-12T02:00:32.662Z,1.80
2023-03-12T02:02:07.180Z,1.50
2023-03-12T02:03:41.044Z,1.70
2023-03-12T02:05:23.520Z,1.10
2023-03-12T02:07:00.000Z,1.40
2023-03-12T02:08:31.790Z,1.20
2023-03-12T02:10:07.228Z,1.60
2023-03-12T02:11:39.094Z,1.50
2023-03-12T02:13:12.212Z,1.80
2023-03-12T02:14:49.759Z,1.10
2023-03-12T02:16:21.852Z,1.60
2023-03-12T02:17:54.629Z,1.40
2023-03-12T02:19:52.550Z,1.60
2023-03-12T02:21:29.184Z,1.50
2023-03-12T02:23:13.805Z,1.30
2023-03-12T02:25:15.947Z,1.30
2023-03-12T02:26:49.730Z,1.40
2023-03-12T02:28:28.272Z,1.30
2023-03-12T02:30:03.148Z,1.40
2023-03-12T02:31:43.791Z,1.20
2023-03-12T02:33:16.275Z,1.30
2023-03-12T02:36:59.874Z,0.90
2023-03-12T02:38:37.216Z,1.20
2023-03-12T02:40:25.449Z,1.20
2023-03-12T02:51:03.440Z,1.20
2023-03-12T02:52:38.233Z,0.90
2023-03-12T02:54:11.497Z,1.20
2023-03-12T02:55:43.540Z,1.20
2023-03-12T02:57:15.523Z,1.30
2023-03-12T02:58:47.452Z,1.30
2023-03-12T03:00:20.692Z,1.20
2023-03-12T03:01:59.381Z,1.20
2023-03-12T03:03:31.185Z,1.20
2023-03-12T03:05:02.961Z,1.20
2023-03-12T03:06:37.854Z,1.00
2023-03-12T03:08:09.728Z,1.30
2023-03-12T03:09:41.831Z,0.90
2023-03-12T03:11:13.950Z,1.30
2023-03-12T03:12:45.926Z,1.10
2023-03-12T03:14:19.306Z,1.10
2023-03-12T03:15:53.003Z,1.40
2023-03-12T03:17:26.868Z,1.10
2023-03-12T03:19:00.049Z,0.90
2023-03-12T03:20:32.571Z,1.00
2023-03-12T03:22:04.365Z,1.10
2023-03-12T03:23:39.882Z,1.30
2023-03-12T03:25:14.182Z,1.20
2023-03-12T03:26:46.105Z,1.30
2023-03-12T03:28:18.844Z,1.20
2023-03-12T03:29:52.774Z,1.30
2023-03-12T03:31:24.879Z,1.30
2023-03-12T03:32:56.932Z,0.90
2023-03-12T03:34:28.879Z,1.40
2023-03-12T03:36:02.368Z,0.90
2023-03-12T03:37:36.372Z,1.60
2023-03-12T03:39:08.380Z,1.40
2023-03-12T03:40:40.357Z,1.60
2023-03-12T03:42:12.303Z,1.20
2023-03-12T03:43:46.131Z,1.50
2023-03-12T03:45:19.807Z,1.20
2023-03-12T03:46:53.547Z,1.20
2023-03-12T03:48:25.702Z,1.20
2023-03-12T03:49:57.810Z,1.30
2023-03-12T03:51:29.811Z,1.30
2023-03-12T03:53:06.092Z,1.20
2023-03-12T03:54:37.908Z,0.90
2023-03-12T03:56:15.761Z,1.10
2023-03-12T03:57:52.606Z,1.10
2023-03-12T03:59:24.524Z,1.60
2023-03-12T04:00:56.667Z,1.10
2023-03-12T04:02:29.316Z,1.30
2023-03-12T04:04:01.769Z,1.20
2023-03-12T04:05:34.493Z,1.10
2023-03-12T04:07:07.464Z,1.20
2023-03-12T04:08:39.559Z,1.10
2023-03-12T04:10:15.071Z,1.40
2023-03-12T04:11:46.938Z,1.30
2023-03-12T04:13:20.923Z,1.10
2023-03-12T04:14:53.427Z,1.40
2023-03-12T04:16:26.748Z,1.10
2023-03-12T04:17:59.106Z,1.40
2023-03-12T04:19:32.303Z,1.00
2023-03-12T04:21:09.490Z,1.30
2023-03-12T04:22:41.862Z,1.30
2023-03-12T04:24:17.981Z,1.10
2023-03-12T04:25:50.172Z,1.00
2023-03-12T04:27:22.189Z,1.50
2023-03-12T04:28:54.028Z,1.10
2023-03-12T04:30:26.348Z,1.00
2023-03-12T04:31:58.241Z,1.40
2023-03-12T04:33:37.439Z,1.10
2023-03-12T04:35:09.614Z,1.00
2023-03-12T04:36:41.851Z,1.10
2023-03-12T04:38:14.739Z,0.90
2023-03-12T04:39:46.629Z,1.00
2023-03-12T04:41:19.031Z,0.80
2023-03-12T04:42:54.223Z,1.60
2023-03-12T04:44:28.866Z,1.10
2023-03-12T04:46:01.950Z,1.10
2023-03-12T04:47:34.218Z,0.90
2023-03-12T04:49:05.993Z,1.00
2023-03-12T04:50:39.299Z,0.90
2023-03-12T04:52:11.849Z,1.30
2023-03-12T04:53:43.804Z,1.00
2023-03-12T04:55:16.366Z,1.30
2023-03-12T04:56:49.801Z,1.10
2023-03-12T04:58:23.021Z,1.20
2023-03-12T04:59:55.003Z,1.00
2023-03-12T05:01:33.848Z,0.60
2023-03-12T05:03:10.554Z,0.80
2023-03-12T05:04:42.803Z,1.10
2023-03-12T05:06:15.077Z,1.10
2023-03-12T05:07:47.744Z,1.00
2023-03-12T05:09:20.348Z,0.90
2023-03-12T05:10:52.261Z,1.00
2023-03-12T05:12:24.070Z,1.10
2023-03-12T05:13:56.307Z,0.90
2023-03-12T05:15:28.853Z,0.70
2023-03-12T05:17:02.128Z,0.90
2023-03-12T05:18:35.735Z,1.10
2023-03-12T05:20:08.933Z,0.50
2023-03-12T05:21:42.555Z,0.80
2023-03-12T05:23:14.456Z,1.00
2023-03-12T05:24:46.359Z,1.00
2023-03-12T05:26:31.937Z,1.20
2023-03-12T05:28:20.254Z,0.90
2023-03-12T05:29:55.704Z,1.20
2023-03-12T05:31:33.048Z,1.00
2023-03-12T05:33:04.926Z,0.70
2023-03-12T05:34:36.811Z,0.90
2023-03-12T05:36:12.400Z,1.00
2023-03-12T05:37:44.492Z,1.20
2023-03-12T05:39:18.927Z,1.10
2023-03-12T05:40:57.908Z,1.00
2023-03-12T05:42:30.441Z,0.90
2023-03-12T05:44:02.865Z,0.90
2023-03-12T05:45:35.072Z,1.00
2023-03-12T05:47:08.911Z,1.10
2023-03-12T05:48:40.743Z,1.00
2023-03-12T05:50:13.233Z,1.00
2023-03-12T05:51:47.436Z,1.40
2023-03-12T05:53:19.614Z,1.10
2023-03-12T05:54:53.101Z,0.90
2023-03-12T05:56:26.475Z,0.80
2023-03-12T05:57:58.316Z,0.70
2023-03-12T05:59:30.684Z,0.70
2023-03-12T06:01:05.302Z,0.80
2023-03-12T06:02:37.755Z,1.10
2023-03-12T06:04:09.767Z,0.80
2023-03-12T06:05:41.721Z,1.10
2023-03-12T06:07:13.466Z,0.90
2023-03-12T06:08:47.878Z,0.90
2023-03-12T06:10:19.902Z,1.30
2023-03-12T06:11:51.804Z,1.70
2023-03-12T06:13:23.712Z,0.80
2023-03-12T06:14:58.785Z,1.10
2023-03-12T06:16:30.892Z,1.00
2023-03-12T06:18:02.953Z,0.90
2023-03-12T06:19:34.838Z,0.80
2023-03-12T06:21:19.420Z,1.10
2023-03-12T06:22:51.272Z,0.60
2023-03-12T06:24:27.220Z,1.20
2023-03-12T06:26:03.526Z,1.00
2023-03-12T06:27:35.299Z,0.90
2023-03-12T06:29:07.530Z,0.90
2023-03-12T06:30:39.279Z,1.00
2023-03-12T06:32:11.132Z,1.60
2023-03-12T06:33:45.910Z,0.80
2023-03-12T06:35:17.802Z,1.20
2023-03-12T06:36:49.670Z,0.80
2023-03-12T06:38:21.666Z,0.90
2023-03-12T06:39:54.624Z,0.90
2023-03-12T06:41:27.570Z,1.30
2023-03-12T06:43:04.571Z,1.10
2023-03-12T06:44:39.334Z,1.10
2023-03-12T06:46:19.134Z,1.20
2023-03-12T06:47:50.942Z,0.90
2023-03-12T06:49:23.869Z,1.10
2023-03-12T06:50:56.292Z,1.10
2023-03-12T06:52:28.050Z,1.20
2023-03-12T06:54:02.595Z,1.20
2023-03-12T06:55:34.409Z,1.30
2023-03-12T06:57:06.217Z,1.10
2023-03-12T06:58:38.768Z,1.00
2023-03-12T07:00:12.497Z,1.00
2023-03-12T07:01:44.199Z,1.00
2023-03-12T07:03:16.335Z,1.00
2023-03-12T07:04:48.182Z,1.50
2023-03-12T07:06:22.583Z,1.00
2023-03-12T07:07:54.464Z,0.50
2023-03-12T07:09:26.339Z,0.90
2023-03-12T07:11:03.354Z,0.70
2023-03-12T07:12:35.195Z,1.40
2023-03-12T07:14:06.935Z,1.50
2023-03-12T07:15:38.818Z,1.20
2023-03-12T07:17:10.648Z,1.20
2023-03-12T07:18:42.501Z,0.80
2023-03-12T07:20:15.500Z,0.90
2023-03-12T07:21:47.280Z,1.50
2023-03-12T07:23:19.485Z,1.00
2023-03-12T07:24:51.387Z,1.10
2023-03-12T07:26:23.923Z,1.40
2023-03-12T07:27:55.715Z,1.20
2023-03-12T07:29:28.874Z,1.30
2023-03-12T07:31:04.353Z,1.30
2023-03-12T07:32:37.743Z,1.30
2023-03-12T07:34:10.839Z,0.90
2023-03-12T07:35:43.081Z,1.20
2023-03-12T07:37:14.909Z,1.30
2023-03-12T07:38:46.641Z,0.70
2023-03-12T07:40:18.451Z,0.90
2023-03-12T07:41:50.474Z,1.20
2023-03-12T07:43:23.271Z,1.10
2023-03-12T07:44:57.974Z,1.40
2023-03-12T07:46:29.984Z,1.30
2023-03-12T07:48:01.824Z,1.40
2023-03-12T07:49:34.762Z,1.30
2023-03-12T07:51:08.085Z,1.20
2023-03-12T07:52:40.084Z,1.20
2023-03-12T07:54:11.953Z,1.50
2023-03-12T07:55:46.689Z,1.10
2023-03-12T07:57:18.719Z,1.00
2023-03-12T07:58:51.492Z,1.20
2023-03-12T08:00:25.223Z,1.40
2023-03-12T08:01:57.455Z,1.60
2023-03-12T08:03:30.675Z,1.60
2023-03-12T08:05:03.321Z,1.70
2023-03-12T08:06:35.694Z,1.30
2023-03-12T08:08:07.870Z,1.80
2023-03-12T08:09:40.123Z,1.30
2023-03-12T08:11:11.937Z,1.60
2023-03-12T08:12:44.210Z,1.60
2023-03-12T08:14:16.277Z,1.80
2023-03-12T08:15:52.825Z,1.70
2023-03-12T08:17:25.437Z,1.90
2023-03-12T08:18:57.677Z,1.50
2023-03-12T08:20:31.032Z,1.60
2023-03-12T08:22:02.835Z,1.70
2023-03-12T08:23:35.769Z,2.20
2023-03-12T08:25:09.908Z,1.00
2023-03-12T08:26:41.676Z,1.40
2023-03-12T08:28:14.420Z,1.80
2023-03-12T08:29:46.173Z,1.50
2023-03-12T08:31:19.404Z,2.10
2023-03-12T08:32:52.413Z,2.00
2023-03-12T08:34:24.291Z,1.10
2023-03-12T08:35:56.216Z,1.40
2023-03-12T08:37:28.184Z,1.70
2023-03-12T08:38:59.968Z,1.50
2023-03-12T08:40:31.694Z,1.40
2023-03-12T08:42:04.202Z,1.70
2023-03-12T08:43:37.564Z,2.10
2023-03-12T08:45:11.479Z,1.40
2023-03-12T08:46:43.229Z,1.80
2023-03-12T08:48:14.994Z,1.40
2023-03-12T08:49:46.944Z,1.80
2023-03-12T08:51:19.099Z,1.70
2023-03-12T08:52:53.528Z,1.90
2023-03-12T08:54:27.905Z,1.60
2023-03-12T08:55:59.797Z,2.00
2023-03-12T08:57:32.513Z,2.40
2023-03-12T08:59:04.315Z,1.90
2023-03-12T09:00:37.150Z,2.10
2023-03-12T09:02:12.906Z,1.90
2023-03-12T09:03:46.522Z,2.10
2023-03-12T09:05:18.383Z,2.10
2023-03-12T09:06:50.817Z,1.70
2023-03-12T09:08:22.685Z,1.90
2023-03-12T09:09:55.730Z,1.80
2023-03-12T09:11:27.542Z,1.60
2023-03-12T09:13:00.812Z,2.40
2023-03-12T09:16:26.002Z,2.20
2023-03-12T09:17:58.178Z,1.80
2023-03-12T09:19:29.938Z,1.70
2023-03-12T09:21:02.504Z,2.40
2023-03-12T09:22:37.038Z,1.90
2023-03-12T09:24:11.695Z,2.70
2023-03-12T09:25:48.459Z,2.20
2023-03-12T09:27:22.334Z,2.40
2023-03-12T09:28:54.695Z,2.50
2023-03-12T09:30:27.226Z,2.50
2023-03-12T09:31:59.532Z,2.20
2023-03-12T09:33:34.012Z,2.30
2023-03-12T09:35:08.839Z,1.80
2023-03-12T09:36:40.849Z,2.00
2023-03-12T09:38:15.275Z,1.90
2023-03-12T09:39:51.035Z,1.50
2023-03-12T09:41:32.617Z,2.10
2023-03-12T09:43:52.073Z,1.80
2023-03-12T09:45:35.333Z,1.70
2023-03-12T09:47:32.141Z,1.80
2023-03-12T09:49:19.634Z,1.10
2023-03-12T09:50:53.260Z,1.90
2023-03-12T09:52:41.601Z,1.90
2023-03-12T09:54:31.612Z,1.60
2023-03-12T09:56:09.282Z,1.80
2023-03-12T09:57:41.715Z,1.90
2023-03-12T09:59:13.548Z,1.60
2023-03-12T10:00:47.538Z,1.70
2023-03-12T10:02:52.913Z,1.10
2023-03-12T10:04:59.729Z,1.40
2023-03-12T10:06:49.580Z,1.80
2023-03-12T10:09:03.702Z,2.40
2023-03-12T10:11:08.939Z,2.00
2023-03-12T10:13:02.529Z,1.50
2023-03-12T10:15:02.913Z,1.50
2023-03-12T10:16:43.244Z,1.10
2023-03-12T10:18:48.174Z,2.00
2023-03-12T10:20:47.089Z,2.10
2023-03-12T10:22:31.166Z,2.20
2023-03-12T10:24:53.221Z,1.70
2023-03-12T10:26:38.002Z,2.40
2023-03-12T10:28:28.134Z,4.00
2023-03-12T10:30:02.148Z,2.50
2023-03-12T10:31:47.154Z,2.00
2023-03-12T10:33:27.428Z,2.00
2023-03-12T10:35:13.511Z,2.20
2023-03-12T10:36:47.836Z,1.90
2023-03-12T10:38:32.270Z,1.50
2023-03-12T10:40:08.880Z,1.90
2023-03-12T10:41:45.327Z,1.90
2023-03-12T10:43:17.347Z,2.50
2023-03-12T10:45:04.058Z,2.30
2023-03-12T10:46:52.735Z,1.70
2023-03-12T10:48:26.461Z,2.30
2023-03-12T10:50:20.514Z,2.60
2023-03-12T10:52:20.268Z,2.10
2023-03-12T10:53:52.519Z,1.90
2023-03-12T10:55:30.146Z,2.20
2023-03-12T10:57:02.384Z,1.60
2023-03-12T10:58:43.186Z,1.60
2023-03-12T11:00:26.609Z,1.60
2023-03-12T11:02:00.010Z,1.70
2023-03-12T11:03:33.953Z,1.90
2023-03-12T11:05:30.816Z,1.60
2023-03-12T11:07:31.115Z,1.70
2023-03-12T11:09:21.071Z,1.80
2023-03-12T11:10:56.018Z,1.70
2023-03-12T11:12:31.067Z,2.00
2023-03-12T11:14:23.816Z,1.50
2023-03-12T11:16:00.741Z,2.30
2023-03-12T11:17:33.141Z,2.40
2023-03-12T11:19:06.372Z,1.80
2023-03-12T11:20:38.178Z,1.80
2023-03-12T11:22:11.750Z,2.00
2023-03-12T11:24:14.808Z,2.30
2023-03-12T11:26:05.158Z,2.10
2023-03-12T11:27:45.824Z,2.70
2023-03-12T11:29:49.205Z,3.20
2023-03-12T11:31:39.003Z,2.80
2023-03-12T11:33:14.154Z,2.80
2023-03-12T11:34:50.076Z,3.30
2023-03-12T11:37:01.405Z,2.80
2023-03-12T11:39:33.306Z,2.40
2023-03-12T11:41:23.884Z,3.30
2023-03-12T11:43:44.040Z,4.00
2023-03-12T11:45:54.259Z,3.40
2023-03-12T11:47:35.410Z,3.60
2023-03-12T11:49:50.173Z,4.00
2023-03-12T11:51:40.195Z,4.00
2023-03-12T11:53:41.974Z,3.40
2023-03-12T11:55:58.687Z,4.30
2023-03-12T11:58:26.273Z,3.80
2023-03-12T12:00:17.389Z,4.30
2023-03-12T12:02:25.924Z,3.00
2023-03-12T12:04:06.244Z,5.40
2023-03-12T12:06:06.169Z,4.70
2023-03-12T12:08:16.888Z,5.10
2023-03-12T12:10:16.384Z,4.70
2023-03-12T12:12:24.720Z,4.60
2023-03-12T12:14:33.493Z,4.80
2023-03-12T12:16:23.494Z,6.50
2023-03-12T12:18:49.268Z,6.10
2023-03-12T12:21:08.961Z,4.40
2023-03-12T12:23:39.114Z,4.30
2023-03-12T12:25:40.248Z,5.40
2023-03-12T12:27:23.944Z,5.40
2023-03-12T12:29:43.998Z,4.50
2023-03-12T12:31:24.444Z,7.30
2023-03-12T12:32:56.486Z,5.50
2023-03-12T12:35:40.388Z,6.70
2023-03-12T12:37:35.695Z,6.50
2023-03-12T12:39:31.314Z,6.90
2023-03-12T12:41:20.873Z,6.50
2023-03-12T12:43:01.788Z,6.70
2023-03-12T12:44:44.295Z,5.60
2023-03-12T12:46:30.819Z,6.00
2023-03-12T12:49:12.579Z,6.90
2023-03-12T12:50:47.682Z,6.80
2023-03-12T12:52:22.043Z,6.40
2023-03-12T12:54:18.487Z,5.80
2023-03-12T12:56:08.893Z,6.20
2023-03-12T12:58:15.197Z,5.30
2023-03-12T13:00:26.051Z,6.10
2023-03-12T13:02:00.334Z,6.40
2023-03-12T13:03:33.174Z,6.70
2023-03-12T13:05:25.232Z,6.00
2023-03-12T13:07:02.796Z,6.10
2023-03-12T13:08:36.463Z,5.60
2023-03-12T13:10:33.719Z,6.70
2023-03-12T13:12:14.802Z,6.50
2023-03-12T13:14:12.959Z,9.10
2023-03-12T13:15:45.210Z,7.80
2023-03-12T13:17:25.403Z,7.90
2023-03-12T13:19:15.861Z,8.60
2023-03-12T13:21:31.944Z,8.50
2023-03-12T13:23:19.989Z,8.50
2023-03-12T13:25:28.833Z,7.90
2023-03-12T13:27:16.964Z,8.10
2023-03-12T13:29:06.192Z,8.50
2023-03-12T13:30:50.654Z,7.50
2023-03-12T13:32:34.321Z,7.50
2023-03-12T13:34:05.939Z,7.80
2023-03-12T13:35:40.365Z,7.00
2023-03-12T13:37:27.216Z,8.50
2023-03-12T13:39:06.488Z,7.90
2023-03-12T13:40:56.179Z,7.80
2023-03-12T13:42:41.765Z,6.40
2023-03-12T13:44:22.542Z,8.70
2023-03-12T13:46:11.112Z,6.90
2023-03-12T13:47:44.402Z,7.80
2023-03-12T13:49:19.640Z,9.50
2023-03-12T13:50:58.896Z,7.60
2023-03-12T13:53:06.326Z,8.10
2023-03-12T13:54:47.501Z,8.20
2023-03-12T13:56:27.399Z,8.40
2023-03-12T13:58:05.012Z,8.30
2023-03-12T13:59:46.183Z,6.60
2023-03-12T14:01:21.810Z,8.40
2023-03-12T14:03:03.481Z,8.60
2023-03-12T14:04:41.654Z,7.60
2023-03-12T14:06:21.668Z,8.20
2023-03-12T14:08:22.662Z,7.70
2023-03-12T14:10:09.359Z,7.80
2023-03-12T14:12:11.976Z,7.80
2023-03-12T14:14:24.524Z,6.60
2023-03-12T14:16:46.613Z,6.80
2023-03-12T14:18:24.258Z,5.80
2023-03-12T14:20:10.308Z,7.00
2023-03-12T14:21:47.073Z,4.60
2023-03-12T14:23:20.751Z,6.60
2023-03-12T14:25:01.951Z,6.30
2023-03-12T14:26:36.820Z,5.50
2023-03-12T14:28:21.794Z,6.30
2023-03-12T14:30:03.870Z,5.80
2023-03-12T14:31:37.778Z,5.90
2023-03-12T14:33:13.859Z,6.20
2023-03-12T14:34:54.464Z,4.80
2023-03-12T14:36:55.257Z,5.40
2023-03-12T14:38:35.445Z,5.00
2023-03-12T14:40:38.269Z,4.30
2023-03-12T14:42:10.920Z,4.70
2023-03-12T14:43:43.975Z,4.50
2023-03-12T14:45:22.937Z,4.40
2023-03-12T14:47:18.007Z,5.20
2023-03-12T14:48:57.235Z,5.00
2023-03-12T14:50:39.041Z,5.20
2023-03-12T14:52:13.990Z,5.90
2023-03-12T14:53:45.768Z,5.40
2023-03-12T14:55:23.912Z,6.60
2023-03-12T14:56:55.738Z,7.00
2023-03-12T14:58:28.352Z,6.50
2023-03-12T15:00:01.456Z,5.40
2023-03-12T15:01:39.603Z,6.00
2023-03-12T15:03:17.492Z,4.50
2023-03-12T15:04:55.316Z,4.90
2023-03-12T15:06:40.416Z,4.40
2023-03-12T15:08:13.182Z,4.70
2023-03-12T15:09:50.558Z,5.00
2023-03-12T15:11:26.640Z,4.80
2023-03-12T15:13:01.429Z,4.80
2023-03-12T15:14:41.126Z,4.00
2023-03-12T15:16:13.659Z,5.20
2023-03-12T15:17:45.637Z,4.60
2023-03-12T15:19:26.235Z,3.80
2023-03-12T15:21:02.350Z,4.00
2023-03-12T15:22:36.052Z,3.70
2023-03-12T15:24:13.337Z,4.20
2023-03-12T15:25:45.479Z,3.80
2023-03-12T15:27:28.309Z,4.40
2023-03-12T15:29:05.196Z,3.50
2023-03-12T15:30:39.424Z,3.10
2023-03-12T15:32:17.519Z,3.90
2023-03-12T15:34:04.166Z,3.60
2023-03-12T15:36:26.034Z,2.70
2023-03-12T15:37:57.882Z,2.80
2023-03-12T15:39:35.589Z,3.70
2023-03-12T15:41:12.030Z,3.90
2023-03-12T15:42:46.918Z,4.00
2023-03-12T15:44:29.680Z,3.50
2023-03-12T15:46:06.692Z,2.80
2023-03-12T15:47:40.721Z,4.00
2023-03-12T15:49:29.810Z,3.70
2023-03-12T15:51:02.815Z,3.30
2023-03-12T15:52:36.293Z,2.80
2023-03-12T15:54:13.637Z,3.70
2023-03-12T15:56:20.587Z,3.60
2023-03-12T15:57:55.044Z,3.60
2023-03-12T15:59:28.526Z,2.40
2023-03-12T16:01:08.776Z,3.20
2023-03-12T16:03:07.947Z,2.50
2023-03-12T16:04:39.716Z,2.70
2023-03-12T16:06:19.838Z,3.20
2023-03-12T16:07:52.183Z,2.80
2023-03-12T16:09:30.683Z,3.20
2023-03-12T16:11:02.969Z,2.90
2023-03-12T16:12:34.812Z,3.80
2023-03-12T16:14:22.616Z,3.40
2023-03-12T16:15:54.764Z,3.20
2023-03-12T16:17:26.470Z,2.80
2023-03-12T16:18:58.244Z,3.40
2023-03-12T16:20:30.644Z,4.20
2023-03-12T16:22:02.370Z,4.10
2023-03-12T16:23:34.643Z,4.20
2023-03-12T16:25:10.625Z,3.60
2023-03-12T16:26:57.700Z,3.80
2023-03-12T16:28:29.745Z,3.00
2023-03-12T16:30:01.470Z,3.40
2023-03-12T16:31:33.236Z,3.10
2023-03-12T16:33:09.149Z,2.90
2023-03-12T16:34:42.139Z,3.00
2023-03-12T16:36:17.397Z,3.30
2023-03-12T16:37:49.901Z,2.90
2023-03-12T16:39:21.605Z,2.30
2023-03-12T16:40:54.142Z,3.10
2023-03-12T16:42:25.982Z,2.40
2023-03-12T16:43:58.961Z,2.50
2023-03-12T16:45:34.907Z,2.80
2023-03-12T16:47:12.714Z,3.30
2023-03-12T16:48:45.842Z,3.40
2023-03-12T16:50:22.794Z,2.70
2023-03-12T16:51:54.484Z,3.50
2023-03-12T16:53:26.722Z,2.80
2023-03-12T16:54:58.625Z,2.40
2023-03-12T16:56:30.342Z,3.20
2023-03-12T16:58:02.375Z,2.70
2023-03-12T16:59:38.005Z,2.50
2023-03-12T17:01:15.405Z,2.90
2023-03-12T17:02:48.817Z,2.60
2023-03-12T17:04:20.767Z,2.70
2023-03-12T17:05:52.594Z,2.20
2023-03-12T17:07:24.239Z,2.50
2023-03-12T17:08:56.459Z,3.00
2023-03-12T17:10:28.176Z,2.70
2023-03-12T17:12:01.071Z,2.30
2023-03-12T17:13:36.606Z,3.50
2023-03-12T17:15:23.695Z,2.80
2023-03-12T17:16:55.466Z,2.80
2023-03-12T17:18:27.588Z,2.90
2023-03-12T17:20:00.513Z,2.60
2023-03-12T17:21:32.362Z,1.70
2023-03-12T17:23:05.822Z,3.60
2023-03-12T17:24:37.583Z,1.90
2023-03-12T17:26:09.909Z,2.40
2023-03-12T17:27:41.676Z,2.30
2023-03-12T17:29:13.505Z,2.50
2023-03-12T17:30:45.608Z,2.80
2023-03-12T17:32:17.392Z,2.50
2023-03-12T17:33:49.105Z,2.60
2023-03-12T17:35:20.941Z,2.20
2023-03-12T17:36:52.779Z,2.70
2023-03-12T17:38:24.751Z,2.30
2023-03-12T17:39:56.610Z,2.50
2023-03-12T17:41:28.242Z,2.50
2023-03-12T17:42:59.926Z,2.40
2023-03-12T17:44:34.789Z,2.40
2023-03-12T17:46:09.702Z,2.80
2023-03-12T17:47:42.422Z,2.40
2023-03-12T17:49:14.149Z,2.20
2023-03-12T17:50:45.942Z,2.70
2023-03-12T17:52:17.685Z,2.60
2023-03-12T17:53:49.469Z,2.50
2023-03-12T17:55:21.174Z,2.70
2023-03-12T17:56:52.853Z,2.30
2023-03-12T17:58:33.902Z,2.80
2023-03-12T18:00:12.683Z,2.50
2023-03-12T18:01:44.618Z,2.00
2023-03-12T18:03:16.463Z,2.60
2023-03-12T18:04:48.534Z,1.90
2023-03-12T18:06:20.252Z,2.40
2023-03-12T18:07:52.018Z,2.90
2023-03-12T18:09:23.746Z,2.30
2023-03-12T18:10:55.658Z,2.30
2023-03-12T18:12:27.557Z,2.10
2023-03-12T18:13:59.317Z,2.30
2023-03-12T18:15:31.064Z,2.00
2023-03-12T18:17:02.725Z,2.60
2023-03-12T18:18:34.425Z,3.20
2023-03-12T18:20:09.778Z,3.10
2023-03-12T18:21:41.615Z,3.10
2023-03-12T18:23:13.500Z,3.30
2023-03-12T18:24:45.498Z,2.40
2023-03-12T18:26:17.211Z,3.50
2023-03-12T18:27:48.898Z,2.90
2023-03-12T18:29:20.574Z,2.80
2023-03-12T18:30:53.600Z,2.20
2023-03-12T18:32:25.359Z,2.80
2023-03-12T18:33:56.988Z,2.50
2023-03-12T18:35:30.370Z,6.00
2023-03-12T18:37:02.290Z,4.00
2023-03-12T18:38:35.285Z,3.30
2023-03-12T18:40:08.141Z,2.90
2023-03-12T18:41:41.946Z,3.40
2023-03-12T18:43:14.161Z,2.40
2023-03-12T18:44:45.797Z,3.20
2023-03-12T18:46:18.977Z,2.80
2023-03-12T18:47:50.959Z,2.10
2023-03-12T18:49:22.798Z,2.90
2023-03-12T18:50:54.861Z,2.80
2023-03-12T18:52:26.485Z,2.70
2023-03-12T18:53:58.180Z,3.00
2023-03-12T18:55:32.114Z,3.00
2023-03-12T18:57:04.087Z,2.70
2023-03-12T18:58:36.189Z,2.00
2023-03-12T19:00:19.750Z,2.70
2023-03-12T19:01:51.527Z,2.30
2023-03-12T19:03:24.369Z,2.10
2023-03-12T19:04:56.483Z,2.80
2023-03-12T19:06:29.685Z,2.90
2023-03-12T19:08:06.909Z,2.30
2023-03-12T19:09:38.816Z,2.30
2023-03-12T19:11:14.840Z,2.50
2023-03-12T19:12:52.476Z,3.50
2023-03-12T19:14:26.512Z,2.90
2023-03-12T19:16:01.244Z,4.70
2023-03-12T19:17:33.005Z,3.30
2023-03-12T19:19:04.666Z,3.20
2023-03-12T19:20:36.584Z,2.70
2023-03-12T19:22:08.629Z,2.00
2023-03-12T19:23:40.638Z,2.40
2023-03-12T19:25:13.393Z,1.60
2023-03-12T19:26:45.086Z,2.60
2023-03-12T19:28:17.083Z,2.30
2023-03-12T19:29:48.893Z,2.50
2023-03-12T19:31:20.735Z,2.10
2023-03-12T19:32:52.476Z,1.50
2023-03-12T19:34:24.262Z,1.90
2023-03-12T19:35:57.427Z,2.80
2023-03-12T19:37:29.099Z,2.40
2023-03-12T19:39:04.406Z,2.60
2023-03-12T19:40:38.351Z,2.60
2023-03-12T19:42:10.203Z,2.20
2023-03-12T19:43:41.956Z,1.70
2023-03-12T19:45:16.499Z,2.50
2023-03-12T19:46:48.193Z,2.40
2023-03-12T19:48:20.277Z,2.70
2023-03-12T19:49:52.003Z,2.00
2023-03-12T19:51:23.742Z,1.80
2023-03-12T19:52:55.463Z,2.20
2023-03-12T19:54:27.680Z,1.90
2023-03-12T19:55:59.395Z,2.30
2023-03-12T19:57:31.625Z,2.50
2023-03-12T19:59:03.704Z,1.80
2023-03-12T20:00:35.382Z,2.20
2023-03-12T20:02:07.138Z,2.30
2023-03-12T20:03:43.615Z,1.70
2023-03-12T20:05:15.898Z,2.50
2023-03-12T20:06:47.846Z,2.60
2023-03-12T20:08:20.993Z,1.70
2023-03-12T20:09:52.721Z,2.10
2023-03-12T20:11:24.535Z,2.90
2023-03-12T20:12:56.226Z,2.20
2023-03-12T20:14:27.928Z,1.70
2023-03-12T20:16:01.462Z,2.80
2023-03-12T20:17:33.140Z,2.00
2023-03-12T20:19:04.861Z,2.50
2023-03-12T20:20:36.536Z,3.00
2023-03-12T20:22:09.153Z,2.50
2023-03-12T20:23:40.843Z,2.00
2023-03-12T20:25:12.492Z,2.50
2023-03-12T20:26:45.279Z,2.10
2023-03-12T20:28:17.924Z,2.80
2023-03-12T20:29:52.596Z,2.60
2023-03-12T20:31:24.342Z,2.40
2023-03-12T20:32:56.056Z,2.90
2023-03-12T20:34:27.813Z,2.30
2023-03-12T20:35:59.564Z,2.70
2023-03-12T20:37:31.279Z,2.20
2023-03-12T20:39:03.319Z,2.30
2023-03-12T20:40:35.039Z,2.40
2023-03-12T20:42:06.753Z,2.50
2023-03-12T20:43:38.945Z,2.00
2023-03-12T20:45:11.427Z,2.10
2023-03-12T20:46:43.104Z,2.30
2023-03-12T20:48:14.771Z,2.40
2023-03-12T20:49:46.438Z,2.10
2023-03-12T20:51:18.409Z,2.50
2023-03-12T20:52:50.193Z,2.50
2023-03-12T20:54:21.858Z,1.60
2023-03-12T20:55:53.705Z,2.80
2023-03-12T20:57:25.362Z,2.50
2023-03-12T20:58:57.325Z,2.00
2023-03-12T21:00:30.550Z,2.50
2023-03-12T21:02:02.301Z,2.50
2023-03-12T21:03:36.384Z,2.40
2023-03-12T21:05:11.250Z,2.30
2023-03-12T21:06:43.008Z,1.60
2023-03-12T21:08:15.776Z,1.80
2023-03-12T21:09:47.429Z,2.60
2023-03-12T21:11:19.101Z,2.90
2023-03-12T21:12:50.767Z,2.50
2023-03-12T21:14:22.655Z,2.60
2023-03-12T21:15:54.281Z,2.60
2023-03-12T21:17:25.918Z,1.70
2023-03-12T21:18:58.719Z,1.90
2023-03-12T21:20:30.395Z,2.10
2023-03-12T21:22:02.027Z,2.00
2023-03-12T21:23:37.843Z,2.10
2023-03-12T21:25:11.660Z,2.90
2023-03-12T21:26:43.317Z,2.70
2023-03-12T21:28:15.168Z,2.10
2023-03-12T21:29:46.872Z,2.20
2023-03-12T21:31:18.947Z,2.30
2023-03-12T21:32:50.704Z,2.10
2023-03-12T21:34:23.301Z,2.20
2023-03-12T21:35:55.008Z,2.50
2023-03-12T21:37:27.547Z,2.30
2023-03-12T21:39:01.816Z,2.40
2023-03-12T21:40:36.009Z,2.50
2023-03-12T21:42:07.988Z,2.10
2023-03-12T21:43:40.734Z,2.40
2023-03-12T21:45:12.565Z,2.80
2023-03-12T21:46:44.458Z,2.10